createdAt,value
2017-09-26T00:00:03.532Z,777.9
2017-09-26T00:00:07.747Z,777.88
2017-09-26T00:00:11.961Z,777.92
2017-09-26T00:00:16.305Z,777.93
2017-09-26T00:00:20.394Z,777.94
2017-09-26T00:00:24.481Z,777.93
2017-09-26T00:00:28.692Z,777.95
2017-09-26T00:00:33.032Z,777.95
2017-09-26T00:00:37.494Z,777.97
2017-09-26T00:00:41.582Z,777.98
2017-09-26T00:00:46.053Z,777.99
2017-09-26T00:00:50.391Z,778
2017-09-26T00:00:54.738Z,778
2017-09-26T00:00:59.326Z,778.04
2017-09-26T00:01:03.821Z,778.05
2017-09-26T00:01:08.038Z,778.07
2017-09-26T00:01:12.376Z,778.04
2017-09-26T00:01:16.340Z,778.08
2017-09-26T00:01:20.805Z,778.06
2017-09-26T00:01:25.026Z,778.07
2017-09-26T00:01:29.237Z,778.11
2017-09-26T00:01:33.577Z,778.13
2017-09-26T00:01:37.674Z,778.11
2017-09-26T00:01:42.135Z,778.14
2017-09-26T00:01:46.601Z,778.13
2017-09-26T00:01:50.942Z,778.18
2017-09-26T00:01:54.902Z,778.16
2017-09-26T00:01:59.111Z,778.15
2017-09-26T00:02:03.449Z,778.19
2017-09-26T00:02:07.659Z,778.17
2017-09-26T00:02:12.119Z,778.15
2017-09-26T00:02:16.332Z,778.15
2017-09-26T00:02:20.549Z,778.19
2017-09-26T00:02:24.890Z,778.22
2017-09-26T00:02:29.226Z,778.15
2017-09-26T00:02:33.454Z,778.25
2017-09-26T00:02:37.787Z,778.24
2017-09-26T00:02:42.120Z,778.25
2017-09-26T00:02:46.369Z,778.23
2017-09-26T00:02:50.541Z,778.19
2017-09-26T00:02:54.893Z,778.26
2017-09-26T00:02:58.981Z,778.3
2017-09-26T00:03:03.249Z,778.3
2017-09-26T00:03:07.592Z,778.31
2017-09-26T00:03:11.937Z,778.3
2017-09-26T00:03:16.276Z,778.32
2017-09-26T00:03:20.862Z,778.32
2017-09-26T00:03:25.193Z,778.31
2017-09-26T00:03:29.527Z,778.33
2017-09-26T00:03:33.748Z,778.32
2017-09-26T00:03:37.956Z,778.34
2017-09-26T00:03:42.043Z,778.35
2017-09-26T00:03:46.130Z,778.35
2017-09-26T00:03:50.727Z,778.35
2017-09-26T00:03:54.940Z,778.37
2017-09-26T00:03:59.026Z,778.35
2017-09-26T00:04:03.236Z,778.38
2017-09-26T00:04:07.704Z,778.39
2017-09-26T00:04:11.796Z,778.35
2017-09-26T00:04:16.137Z,778.34
2017-09-26T00:04:20.727Z,778.34
2017-09-26T00:04:24.689Z,778.37
2017-09-26T00:04:28.785Z,778.34
2017-09-26T00:04:32.881Z,778.35
2017-09-26T00:04:37.104Z,778.35
2017-09-26T00:04:41.330Z,778.4
2017-09-26T00:04:45.677Z,778.41
2017-09-26T00:04:50.024Z,778.44
2017-09-26T00:04:54.375Z,778.43
2017-09-26T00:04:58.599Z,778.43
2017-09-26T00:05:02.946Z,778.47
2017-09-26T00:05:07.046Z,778.39
2017-09-26T00:05:11.525Z,778.41
2017-09-26T00:05:16.249Z,778.45
2017-09-26T00:05:20.477Z,778.44
2017-09-26T00:05:24.951Z,778.45
2017-09-26T00:05:29.550Z,778.39
2017-09-26T00:05:33.775Z,778.48
2017-09-26T00:05:37.749Z,778.48
2017-09-26T00:05:42.227Z,778.49
2017-09-26T00:05:46.202Z,778.46
2017-09-26T00:05:50.470Z,778.44
2017-09-26T00:05:54.693Z,778.47
2017-09-26T00:05:58.915Z,778.5
2017-09-26T00:06:03.245Z,778.46
2017-09-26T00:06:07.602Z,778.56
2017-09-26T00:06:11.830Z,778.53
2017-09-26T00:06:16.181Z,778.56
2017-09-26T00:06:20.417Z,778.55
2017-09-26T00:06:24.798Z,778.53
2017-09-26T00:06:29.024Z,778.57
2017-09-26T00:06:33.499Z,778.56
2017-09-26T00:06:38.016Z,778.56
2017-09-26T00:06:42.113Z,778.6
2017-09-26T00:06:46.462Z,778.61
2017-09-26T00:06:50.943Z,778.62
2017-09-26T00:06:55.295Z,778.58
2017-09-26T00:06:59.647Z,778.61
2017-09-26T00:07:03.997Z,778.61
2017-09-26T00:07:08.221Z,778.59
2017-09-26T00:07:12.699Z,778.63
2017-09-26T00:07:17.173Z,778.67
2017-09-26T00:07:21.396Z,778.64
2017-09-26T00:07:25.749Z,778.66
2017-09-26T00:07:29.895Z,778.66
2017-09-26T00:07:34.334Z,778.65
2017-09-26T00:07:38.684Z,778.67
2017-09-26T00:07:43.042Z,778.67
2017-09-26T00:07:47.403Z,778.67
2017-09-26T00:07:51.628Z,778.68
2017-09-26T00:07:55.726Z,778.68
2017-09-26T00:08:00.343Z,778.64
2017-09-26T00:08:04.701Z,778.67
2017-09-26T00:08:09.305Z,778.71
2017-09-26T00:08:13.653Z,778.71
2017-09-26T00:08:18.256Z,778.67
2017-09-26T00:08:22.483Z,778.73
2017-09-26T00:08:26.836Z,778.73
2017-09-26T00:08:31.194Z,778.73
2017-09-26T00:08:35.302Z,778.76
2017-09-26T00:08:39.777Z,778.77
2017-09-26T00:08:44.008Z,778.78
2017-09-26T00:08:48.359Z,778.79
2017-09-26T00:08:52.835Z,778.79
2017-09-26T00:08:57.436Z,778.79
2017-09-26T00:09:01.836Z,778.82
2017-09-26T00:09:06.063Z,778.82
2017-09-26T00:09:10.415Z,778.81
2017-09-26T00:09:14.519Z,778.81
2017-09-26T00:09:18.622Z,778.83
2017-09-26T00:09:22.970Z,778.84
2017-09-26T00:09:27.448Z,778.85
2017-09-26T00:09:31.672Z,778.88
2017-09-26T00:09:35.771Z,778.85
2017-09-26T00:09:39.872Z,778.91
2017-09-26T00:09:44.094Z,778.91
2017-09-26T00:09:48.704Z,778.93
2017-09-26T00:09:52.930Z,778.95
2017-09-26T00:09:57.289Z,778.94
2017-09-26T00:10:01.766Z,778.93
2017-09-26T00:10:06.368Z,778.96
2017-09-26T00:10:10.725Z,778.93
2017-09-26T00:10:14.703Z,778.97
2017-09-26T00:10:18.931Z,779.01
2017-09-26T00:10:23.032Z,778.99
2017-09-26T00:10:27.261Z,779.03
2017-09-26T00:10:31.620Z,778.99
2017-09-26T00:10:35.970Z,779.01
2017-09-26T00:10:40.074Z,779
2017-09-26T00:10:44.303Z,779.02
2017-09-26T00:10:48.655Z,779.05
2017-09-26T00:10:53.005Z,779.09
2017-09-26T00:10:57.362Z,779.1
2017-09-26T00:11:01.717Z,779.14
2017-09-26T00:11:05.950Z,779.11
2017-09-26T00:11:10.303Z,779.13
2017-09-26T00:11:14.526Z,779.15
2017-09-26T00:11:18.879Z,779.11
2017-09-26T00:11:22.979Z,779.14
2017-09-26T00:11:27.205Z,779.12
2017-09-26T00:11:31.306Z,779.17
2017-09-26T00:11:35.661Z,779.2
2017-09-26T00:11:39.887Z,779.22
2017-09-26T00:11:44.233Z,779.18
2017-09-26T00:11:48.456Z,779.22
2017-09-26T00:11:52.813Z,779.26
2017-09-26T00:11:57.043Z,779.24
2017-09-26T00:12:01.389Z,779.27
2017-09-26T00:12:05.619Z,779.27
2017-09-26T00:12:10.093Z,779.29
2017-09-26T00:12:14.067Z,779.24
2017-09-26T00:12:18.290Z,779.25
2017-09-26T00:12:22.390Z,779.28
2017-09-26T00:12:26.740Z,779.25
2017-09-26T00:12:31.088Z,779.34
2017-09-26T00:12:35.569Z,779.3
2017-09-26T00:12:39.825Z,779.33
2017-09-26T00:12:44.183Z,779.36
2017-09-26T00:12:48.663Z,779.34
2017-09-26T00:12:52.765Z,779.37
2017-09-26T00:12:57.365Z,779.36
2017-09-26T00:13:01.590Z,779.37
2017-09-26T00:13:06.262Z,779.39
2017-09-26T00:13:10.612Z,779.35
2017-09-26T00:13:14.838Z,779.34
2017-09-26T00:13:19.185Z,779.36
2017-09-26T00:13:23.659Z,779.45
2017-09-26T00:13:28.017Z,779.39
2017-09-26T00:13:32.266Z,779.42
2017-09-26T00:13:36.368Z,779.44
2017-09-26T00:13:40.593Z,779.43
2017-09-26T00:13:44.942Z,779.44
2017-09-26T00:13:49.293Z,779.45
2017-09-26T00:13:53.764Z,779.45
2017-09-26T00:13:57.993Z,779.47
2017-09-26T00:14:02.226Z,779.48
2017-09-26T00:14:06.330Z,779.47
2017-09-26T00:14:10.315Z,779.43
2017-09-26T00:14:14.676Z,779.47
2017-09-26T00:14:19.059Z,779.5
2017-09-26T00:14:23.282Z,779.51
2017-09-26T00:14:27.884Z,779.49
2017-09-26T00:14:32.234Z,779.5
2017-09-26T00:14:36.333Z,779.52
2017-09-26T00:14:40.309Z,779.52
2017-09-26T00:14:44.533Z,779.52
2017-09-26T00:14:48.885Z,779.53
2017-09-26T00:14:53.358Z,779.57
2017-09-26T00:14:57.458Z,779.53
2017-09-26T00:15:02.084Z,779.58
2017-09-26T00:15:06.310Z,779.55
2017-09-26T00:15:10.410Z,779.57
2017-09-26T00:15:14.635Z,779.56
2017-09-26T00:15:18.862Z,779.59
2017-09-26T00:15:22.960Z,779.59
2017-09-26T00:15:27.059Z,779.57
2017-09-26T00:15:31.289Z,779.6
2017-09-26T00:15:35.768Z,779.61
2017-09-26T00:15:40.118Z,779.59
2017-09-26T00:15:44.595Z,779.61
2017-09-26T00:15:48.821Z,779.6
2017-09-26T00:15:53.204Z,779.59
2017-09-26T00:15:57.557Z,779.62
2017-09-26T00:16:02.594Z,779.61
2017-09-26T00:16:06.946Z,779.61
2017-09-26T00:16:11.176Z,779.65
2017-09-26T00:16:15.276Z,779.63
2017-09-26T00:16:19.378Z,779.63
2017-09-26T00:16:23.729Z,779.66
2017-09-26T00:16:27.955Z,779.59
2017-09-26T00:16:32.303Z,779.61
2017-09-26T00:16:36.783Z,779.59
2017-09-26T00:16:41.386Z,779.65
2017-09-26T00:16:45.859Z,779.64
2017-09-26T00:16:49.969Z,779.65
2017-09-26T00:16:54.574Z,779.66
2017-09-26T00:16:59.174Z,779.66
2017-09-26T00:17:03.602Z,779.66
2017-09-26T00:17:08.079Z,779.69
2017-09-26T00:17:12.302Z,779.68
2017-09-26T00:17:16.658Z,779.67
2017-09-26T00:17:20.881Z,779.64
2017-09-26T00:17:25.356Z,779.68
2017-09-26T00:17:29.594Z,779.68
2017-09-26T00:17:33.813Z,779.68
2017-09-26T00:17:38.043Z,779.69
2017-09-26T00:17:42.268Z,779.67
2017-09-26T00:17:46.370Z,779.67
2017-09-26T00:17:50.634Z,779.69
2017-09-26T00:17:54.982Z,779.71
2017-09-26T00:17:59.459Z,779.71
2017-09-26T00:18:03.685Z,779.72
2017-09-26T00:18:08.044Z,779.71
2017-09-26T00:18:12.392Z,779.69
2017-09-26T00:18:16.494Z,779.67
2017-09-26T00:18:20.595Z,779.68
2017-09-26T00:18:24.825Z,779.69
2017-09-26T00:18:28.924Z,779.71
2017-09-26T00:18:33.450Z,779.7
2017-09-26T00:18:37.553Z,779.69
2017-09-26T00:18:41.902Z,779.71
2017-09-26T00:18:46.127Z,779.67
2017-09-26T00:18:50.350Z,779.7
2017-09-26T00:18:54.450Z,779.7
2017-09-26T00:18:58.936Z,779.69
2017-09-26T00:19:03.739Z,779.7
2017-09-26T00:19:08.217Z,779.69
2017-09-26T00:19:12.696Z,779.68
2017-09-26T00:19:16.919Z,779.69
2017-09-26T00:19:21.020Z,779.67
2017-09-26T00:19:25.245Z,779.69
2017-09-26T00:19:29.473Z,779.65
2017-09-26T00:19:33.573Z,779.67
2017-09-26T00:19:37.919Z,779.65
2017-09-26T00:19:42.142Z,779.65
2017-09-26T00:19:46.374Z,779.69
2017-09-26T00:19:50.598Z,779.67
2017-09-26T00:19:54.700Z,779.69
2017-09-26T00:19:59.051Z,779.68
2017-09-26T00:20:03.156Z,779.67
2017-09-26T00:20:07.402Z,779.66
2017-09-26T00:20:11.499Z,779.67
2017-09-26T00:20:15.599Z,779.6
2017-09-26T00:20:19.957Z,779.65
2017-09-26T00:20:24.432Z,779.69
2017-09-26T00:20:28.786Z,779.68
2017-09-26T00:20:32.763Z,779.7
2017-09-26T00:20:36.989Z,779.63
2017-09-26T00:20:41.340Z,779.64
2017-09-26T00:20:45.690Z,779.62
2017-09-26T00:20:50.041Z,779.6
2017-09-26T00:20:54.529Z,779.64
2017-09-26T00:20:58.755Z,779.61
2017-09-26T00:21:02.859Z,779.6
2017-09-26T00:21:07.341Z,779.61
2017-09-26T00:21:11.441Z,779.6
2017-09-26T00:21:15.672Z,779.62
2017-09-26T00:21:19.655Z,779.63
2017-09-26T00:21:23.884Z,779.64
2017-09-26T00:21:28.110Z,779.62
2017-09-26T00:21:32.212Z,779.61
2017-09-26T00:21:36.437Z,779.63
2017-09-26T00:21:40.665Z,779.62
2017-09-26T00:21:44.891Z,779.59
2017-09-26T00:21:49.117Z,779.63
2017-09-26T00:21:53.094Z,779.64
2017-09-26T00:21:57.196Z,779.62
2017-09-26T00:22:01.425Z,779.61
2017-09-26T00:22:05.805Z,779.6
2017-09-26T00:22:10.153Z,779.61
2017-09-26T00:22:14.638Z,779.61
2017-09-26T00:22:19.114Z,779.6
2017-09-26T00:22:23.339Z,779.58
2017-09-26T00:22:27.567Z,779.59
2017-09-26T00:22:31.831Z,779.62
2017-09-26T00:22:36.063Z,779.59
2017-09-26T00:22:40.164Z,779.54
2017-09-26T00:22:44.395Z,779.55
2017-09-26T00:22:48.622Z,779.56
2017-09-26T00:22:52.973Z,779.56
2017-09-26T00:23:29.256Z,779.61
2017-09-26T00:23:33.236Z,779.58
2017-09-26T00:23:37.461Z,779.55
2017-09-26T00:23:41.439Z,779.55
2017-09-26T00:23:45.554Z,779.56
2017-09-26T00:23:49.912Z,779.54
2017-09-26T00:23:53.896Z,779.58
2017-09-26T00:23:58.248Z,779.6
2017-09-26T00:24:02.653Z,779.56
2017-09-26T00:24:07.003Z,779.57
2017-09-26T00:24:11.483Z,779.56
2017-09-26T00:24:15.585Z,779.57
2017-09-26T00:24:19.942Z,779.56
2017-09-26T00:24:24.169Z,779.55
2017-09-26T00:24:28.528Z,779.55
2017-09-26T00:24:32.629Z,779.55
2017-09-26T00:24:36.856Z,779.52
2017-09-26T00:24:41.237Z,779.52
2017-09-26T00:24:45.714Z,779.52
2017-09-26T00:24:49.813Z,779.52
2017-09-26T00:24:53.914Z,779.48
2017-09-26T00:24:58.144Z,779.48
2017-09-26T00:25:02.641Z,779.49
2017-09-26T00:25:07.123Z,779.49
2017-09-26T00:25:11.610Z,779.47
2017-09-26T00:25:15.710Z,779.49
2017-09-26T00:25:19.936Z,779.47
2017-09-26T00:25:24.164Z,779.47
2017-09-26T00:25:28.649Z,779.45
2017-09-26T00:25:33.011Z,779.42
2017-09-26T00:25:37.246Z,779.37
2017-09-26T00:25:41.605Z,779.4
2017-09-26T00:25:45.708Z,779.4
2017-09-26T00:25:49.934Z,779.37
2017-09-26T00:25:54.161Z,779.37
2017-09-26T00:25:58.511Z,779.36
2017-09-26T00:26:02.864Z,779.37
2017-09-26T00:26:07.214Z,779.32
2017-09-26T00:26:11.443Z,779.3
2017-09-26T00:26:15.809Z,779.3
2017-09-26T00:26:20.326Z,779.28
2017-09-26T00:26:24.801Z,779.3
2017-09-26T00:26:28.901Z,779.21
2017-09-26T00:26:33.254Z,779.18
2017-09-26T00:26:37.609Z,779.24
2017-09-26T00:26:41.719Z,779.22
2017-09-26T00:26:46.069Z,779.17
2017-09-26T00:26:50.296Z,779.21
2017-09-26T00:26:54.398Z,779.21
2017-09-26T00:26:58.760Z,779.15
2017-09-26T00:27:02.984Z,779.16
2017-09-26T00:27:06.961Z,779.1
2017-09-26T00:27:11.313Z,779.13
2017-09-26T00:27:15.416Z,779.11
2017-09-26T00:27:19.642Z,779.09
2017-09-26T00:27:23.868Z,779.05
2017-09-26T00:27:28.347Z,779.03
2017-09-26T00:27:32.575Z,778.99
2017-09-26T00:27:36.803Z,778.99
2017-09-26T00:27:41.027Z,779
2017-09-26T00:27:45.382Z,779.01
2017-09-26T00:27:49.481Z,778.98
2017-09-26T00:27:53.710Z,778.95
2017-09-26T00:27:58.063Z,778.93
2017-09-26T00:28:02.540Z,778.88
2017-09-26T00:28:06.645Z,778.88
2017-09-26T00:28:10.993Z,778.89
2017-09-26T00:28:15.099Z,778.86
2017-09-26T00:28:19.449Z,778.87
2017-09-26T00:28:23.550Z,778.84
2017-09-26T00:28:27.905Z,778.77
2017-09-26T00:28:32.292Z,778.77
2017-09-26T00:28:36.767Z,778.77
2017-09-26T00:28:41.120Z,778.76
2017-09-26T00:28:45.602Z,778.76
2017-09-26T00:28:50.090Z,778.72
2017-09-26T00:28:54.440Z,778.7
2017-09-26T00:28:58.792Z,778.68
2017-09-26T00:29:03.020Z,778.62
2017-09-26T00:29:07.264Z,778.61
2017-09-26T00:29:11.742Z,778.61
2017-09-26T00:29:15.967Z,778.6
2017-09-26T00:29:20.194Z,778.61
2017-09-26T00:29:24.673Z,778.62
2017-09-26T00:29:28.649Z,778.6
2017-09-26T00:29:32.875Z,778.55
2017-09-26T00:29:36.976Z,778.55
2017-09-26T00:29:41.203Z,778.51
2017-09-26T00:29:45.680Z,778.5
2017-09-26T00:29:50.032Z,778.49
2017-09-26T00:29:54.408Z,778.47
2017-09-26T00:29:58.884Z,778.42
2017-09-26T00:30:03.237Z,778.45
2017-09-26T00:30:07.343Z,778.42
2017-09-26T00:30:11.448Z,778.43
2017-09-26T00:30:15.676Z,778.41
2017-09-26T00:30:19.778Z,778.36
2017-09-26T00:30:24.020Z,778.39
2017-09-26T00:30:28.372Z,778.36
2017-09-26T00:30:32.726Z,778.33
2017-09-26T00:30:36.956Z,778.3
2017-09-26T00:30:41.184Z,778.29
2017-09-26T00:30:45.541Z,778.24
2017-09-26T00:30:50.017Z,778.25
2017-09-26T00:30:54.244Z,778.22
2017-09-26T00:30:58.471Z,778.19
2017-09-26T00:31:03.004Z,778.16
2017-09-26T00:31:07.230Z,778.15
2017-09-26T00:31:11.586Z,778.16
2017-09-26T00:31:15.700Z,778.14
2017-09-26T00:31:20.301Z,778.11
2017-09-26T00:31:24.779Z,778.09
2017-09-26T00:31:29.006Z,778.09
2017-09-26T00:31:33.357Z,778.05
2017-09-26T00:31:37.582Z,778.04
2017-09-26T00:31:42.057Z,778
2017-09-26T00:31:46.158Z,777.93
2017-09-26T00:31:50.385Z,777.95
2017-09-26T00:31:54.861Z,777.93
2017-09-26T00:31:58.968Z,777.95
2017-09-26T00:32:03.447Z,777.92
2017-09-26T00:32:07.678Z,777.95
2017-09-26T00:32:12.154Z,777.87
2017-09-26T00:32:16.256Z,777.91
2017-09-26T00:32:20.608Z,777.93
2017-09-26T00:32:24.834Z,777.87
2017-09-26T00:32:29.059Z,777.84
2017-09-26T00:32:33.160Z,777.81
2017-09-26T00:32:37.645Z,777.86
2017-09-26T00:32:41.994Z,777.79
2017-09-26T00:32:46.095Z,777.75
2017-09-26T00:32:50.695Z,777.76
2017-09-26T00:32:54.797Z,777.69
2017-09-26T00:32:59.316Z,777.71
2017-09-26T00:33:03.542Z,777.72
2017-09-26T00:33:07.646Z,777.68
2017-09-26T00:33:12.130Z,777.66
2017-09-26T00:33:16.232Z,777.66
2017-09-26T00:33:20.584Z,777.65
2017-09-26T00:33:24.944Z,777.61
2017-09-26T00:33:29.171Z,777.6
2017-09-26T00:33:33.533Z,777.58
2017-09-26T00:33:38.011Z,777.55
2017-09-26T00:33:42.364Z,777.57
2017-09-26T00:33:46.596Z,777.55
2017-09-26T00:33:50.961Z,777.51
2017-09-26T00:33:55.312Z,777.53
2017-09-26T00:33:59.789Z,777.49
2017-09-26T00:34:04.263Z,777.49
2017-09-26T00:34:08.364Z,777.47
2017-09-26T00:34:12.600Z,777.44
2017-09-26T00:34:16.953Z,777.44
2017-09-26T00:34:21.181Z,777.39
2017-09-26T00:34:25.408Z,777.4
2017-09-26T00:34:29.508Z,777.35
2017-09-26T00:34:33.492Z,777.36
2017-09-26T00:34:37.842Z,777.35
2017-09-26T00:34:41.946Z,777.36
2017-09-26T00:34:46.300Z,777.34
2017-09-26T00:34:50.407Z,777.32
2017-09-26T00:34:54.632Z,777.31
2017-09-26T00:34:58.858Z,777.3
2017-09-26T00:35:03.535Z,777.31
2017-09-26T00:35:07.761Z,777.26
2017-09-26T00:35:12.235Z,777.25
2017-09-26T00:35:16.461Z,777.23
2017-09-26T00:35:20.814Z,777.23
2017-09-26T00:35:25.194Z,777.21
2017-09-26T00:35:29.420Z,777.18
2017-09-26T00:35:34.021Z,777.16
2017-09-26T00:35:38.253Z,777.15
2017-09-26T00:35:42.728Z,777.16
2017-09-26T00:35:46.963Z,777.14
2017-09-26T00:35:50.941Z,777.15
2017-09-26T00:35:55.334Z,777.11
2017-09-26T00:35:59.935Z,777.09
2017-09-26T00:36:04.611Z,777.09
2017-09-26T00:36:08.961Z,777.07
2017-09-26T00:36:13.063Z,777.08
2017-09-26T00:36:17.287Z,777.04
2017-09-26T00:36:21.759Z,777.04
2017-09-26T00:36:26.108Z,777.02
2017-09-26T00:36:30.221Z,777.03
2017-09-26T00:36:34.570Z,776.99
2017-09-26T00:36:38.676Z,776.97
2017-09-26T00:36:43.026Z,776.96
2017-09-26T00:36:47.255Z,776.97
2017-09-26T00:36:51.479Z,776.96
2017-09-26T00:36:55.705Z,776.91
2017-09-26T00:36:59.929Z,776.93
2017-09-26T00:37:04.081Z,776.86
2017-09-26T00:37:08.432Z,776.89
2017-09-26T00:37:12.532Z,776.88
2017-09-26T00:37:16.882Z,776.85
2017-09-26T00:37:21.232Z,776.87
2017-09-26T00:37:25.613Z,776.85
2017-09-26T00:37:29.963Z,776.85
2017-09-26T00:37:34.194Z,776.85
2017-09-26T00:37:38.551Z,776.84
2017-09-26T00:37:43.030Z,776.81
2017-09-26T00:37:47.270Z,776.84
2017-09-26T00:37:51.626Z,776.77
2017-09-26T00:37:56.014Z,776.79
2017-09-26T00:38:00.114Z,776.77
2017-09-26T00:38:04.815Z,776.76
2017-09-26T00:38:09.291Z,776.73
2017-09-26T00:38:13.768Z,776.73
2017-09-26T00:38:17.868Z,776.75
2017-09-26T00:38:22.095Z,776.74
2017-09-26T00:38:26.328Z,776.69
2017-09-26T00:38:30.815Z,776.66
2017-09-26T00:38:34.918Z,776.68
2017-09-26T00:38:38.895Z,776.66
2017-09-26T00:38:43.248Z,776.62
2017-09-26T00:38:47.227Z,776.64
2017-09-26T00:38:51.712Z,776.59
2017-09-26T00:38:55.944Z,776.59
2017-09-26T00:39:00.181Z,776.6
2017-09-26T00:39:04.538Z,776.57
2017-09-26T00:39:08.638Z,776.56
2017-09-26T00:39:12.863Z,776.56
2017-09-26T00:39:17.216Z,776.53
2017-09-26T00:39:21.318Z,776.52
2017-09-26T00:39:25.668Z,776.51
2017-09-26T00:39:30.021Z,776.5
2017-09-26T00:39:33.998Z,776.46
2017-09-26T00:39:38.226Z,776.45
2017-09-26T00:39:42.465Z,776.47
2017-09-26T00:39:46.825Z,776.5
2017-09-26T00:39:50.934Z,776.46
2017-09-26T00:39:55.417Z,776.47
2017-09-26T00:39:59.643Z,776.44
2017-09-26T00:40:04.025Z,776.45
2017-09-26T00:40:08.257Z,776.45
2017-09-26T00:40:12.736Z,776.44
2017-09-26T00:40:16.962Z,776.4
2017-09-26T00:40:21.065Z,776.42
2017-09-26T00:40:25.289Z,776.4
2017-09-26T00:40:29.389Z,776.35
2017-09-26T00:40:33.865Z,776.36
2017-09-26T00:40:38.092Z,776.35
2017-09-26T00:40:42.200Z,776.34
2017-09-26T00:40:46.552Z,776.38
2017-09-26T00:40:50.689Z,776.37
2017-09-26T00:40:55.004Z,776.37
2017-09-26T00:40:59.353Z,776.36
2017-09-26T00:41:03.455Z,776.35
2017-09-26T00:41:07.934Z,776.35
2017-09-26T00:41:12.532Z,776.35
2017-09-26T00:41:16.888Z,776.32
2017-09-26T00:41:21.241Z,776.33
2017-09-26T00:41:25.472Z,776.29
2017-09-26T00:41:29.820Z,776.27
2017-09-26T00:41:34.169Z,776.27
2017-09-26T00:41:38.400Z,776.28
2017-09-26T00:41:42.752Z,776.24
2017-09-26T00:41:47.237Z,776.3
2017-09-26T00:41:51.711Z,776.27
2017-09-26T00:41:55.812Z,776.25
2017-09-26T00:42:00.043Z,776.28
2017-09-26T00:42:04.392Z,776.22
2017-09-26T00:42:08.617Z,776.22
2017-09-26T00:42:12.849Z,776.24
2017-09-26T00:42:16.825Z,776.24
2017-09-26T00:42:21.049Z,776.22
2017-09-26T00:42:25.406Z,776.2
2017-09-26T00:42:29.634Z,776.2
2017-09-26T00:42:33.986Z,776.22
2017-09-26T00:42:38.087Z,776.2
2017-09-26T00:42:42.188Z,776.21
2017-09-26T00:42:46.164Z,776.22
2017-09-26T00:42:50.397Z,776.2
2017-09-26T00:42:54.993Z,776.21
2017-09-26T00:42:59.095Z,776.21
2017-09-26T00:43:03.422Z,776.19
2017-09-26T00:43:07.647Z,776.2
2017-09-26T00:43:12.127Z,776.2
2017-09-26T00:43:16.108Z,776.22
2017-09-26T00:43:20.216Z,776.2
2017-09-26T00:43:24.573Z,776.17
2017-09-26T00:43:28.927Z,776.18
2017-09-26T00:43:33.156Z,776.16
2017-09-26T00:43:37.503Z,776.17
2017-09-26T00:43:41.728Z,776.14
2017-09-26T00:43:46.083Z,776.16
2017-09-26T00:43:50.309Z,776.17
2017-09-26T00:43:54.791Z,776.19
2017-09-26T00:43:59.143Z,776.16
2017-09-26T00:44:03.243Z,776.17
2017-09-26T00:44:07.468Z,776.16
2017-09-26T00:44:11.694Z,776.16
2017-09-26T00:44:15.669Z,776.14
2017-09-26T00:44:20.269Z,776.14
2017-09-26T00:44:24.369Z,776.14
2017-09-26T00:44:28.976Z,776.17
2017-09-26T00:44:33.199Z,776.14
2017-09-26T00:44:37.436Z,776.14
2017-09-26T00:44:41.661Z,776.13
2017-09-26T00:44:46.258Z,776.15
2017-09-26T00:44:50.614Z,776.12
2017-09-26T00:44:54.715Z,776.11
2017-09-26T00:44:59.191Z,776.11
2017-09-26T00:45:03.415Z,776.14
2017-09-26T00:45:07.643Z,776.13
2017-09-26T00:45:11.868Z,776.11
2017-09-26T00:45:16.092Z,776.11
2017-09-26T00:45:20.316Z,776.15
2017-09-26T00:45:24.923Z,776.13
2017-09-26T00:45:29.148Z,776.15
2017-09-26T00:45:33.248Z,776.1
2017-09-26T00:45:37.348Z,776.14
2017-09-26T00:45:41.575Z,776.14
2017-09-26T00:45:45.677Z,776.11
2017-09-26T00:45:49.652Z,776.14
2017-09-26T00:45:53.876Z,776.13
2017-09-26T00:45:57.981Z,776.13
2017-09-26T00:46:02.335Z,776.1
2017-09-26T00:46:06.560Z,776.14
2017-09-26T00:46:11.040Z,776.11
2017-09-26T00:46:15.265Z,776.14
2017-09-26T00:46:19.493Z,776.13
2017-09-26T00:46:23.843Z,776.15
2017-09-26T00:46:28.192Z,776.14
2017-09-26T00:46:32.292Z,776.17
2017-09-26T00:46:36.642Z,776.15
2017-09-26T00:46:40.617Z,776.11
2017-09-26T00:46:44.841Z,776.13
2017-09-26T00:46:49.191Z,776.14
2017-09-26T00:46:53.665Z,776.17
2017-09-26T00:46:57.888Z,776.13
2017-09-26T00:47:02.240Z,776.15
2017-09-26T00:47:06.608Z,776.13
2017-09-26T00:47:10.832Z,776.16
2017-09-26T00:47:14.929Z,776.16
2017-09-26T00:47:19.156Z,776.15
2017-09-26T00:47:23.629Z,776.18
2017-09-26T00:47:27.976Z,776.13
2017-09-26T00:47:32.211Z,776.15
2017-09-26T00:47:36.689Z,776.15
2017-09-26T00:47:40.790Z,776.16
2017-09-26T00:47:45.012Z,776.12
2017-09-26T00:47:49.239Z,776.13
2017-09-26T00:47:53.588Z,776.17
2017-09-26T00:47:57.688Z,776.15
2017-09-26T00:48:01.790Z,776.15
2017-09-26T00:48:06.264Z,776.17
2017-09-26T00:48:10.617Z,776.18
2017-09-26T00:48:14.717Z,776.18
2017-09-26T00:48:18.817Z,776.18
2017-09-26T00:48:22.951Z,776.15
2017-09-26T00:48:27.427Z,776.15
2017-09-26T00:48:31.773Z,776.17
2017-09-26T00:48:35.873Z,776.17
2017-09-26T00:48:39.978Z,776.17
2017-09-26T00:48:44.578Z,776.14
2017-09-26T00:48:48.674Z,776.16
2017-09-26T00:48:52.904Z,776.19
2017-09-26T00:48:57.258Z,776.15
2017-09-26T00:49:01.485Z,776.16
2017-09-26T00:49:05.837Z,776.15
2017-09-26T00:49:10.188Z,776.15
2017-09-26T00:49:14.289Z,776.17
2017-09-26T00:49:18.511Z,776.16
2017-09-26T00:49:22.860Z,776.12
2017-09-26T00:49:27.089Z,776.13
2017-09-26T00:49:31.311Z,776.16
2017-09-26T00:49:35.540Z,776.13
2017-09-26T00:49:39.889Z,776.14
2017-09-26T00:49:44.242Z,776.12
2017-09-26T00:49:48.467Z,776.13
2017-09-26T00:49:52.688Z,776.13
2017-09-26T00:49:57.036Z,776.14
2017-09-26T00:50:01.262Z,776.14
2017-09-26T00:50:05.609Z,776.13
2017-09-26T00:50:09.708Z,776.14
2017-09-26T00:50:13.806Z,776.14
2017-09-26T00:50:17.907Z,776.15
2017-09-26T00:50:22.256Z,776.16
2017-09-26T00:50:26.726Z,776.15
2017-09-26T00:50:30.950Z,776.12
2017-09-26T00:50:35.049Z,776.14
2017-09-26T00:50:39.274Z,776.12
2017-09-26T00:50:43.498Z,776.14
2017-09-26T00:50:47.851Z,776.13
2017-09-26T00:50:52.451Z,776.14
2017-09-26T00:50:56.681Z,776.18
2017-09-26T00:51:01.277Z,776.14
2017-09-26T00:51:05.680Z,776.16
2017-09-26T00:51:09.909Z,776.18
2017-09-26T00:51:14.010Z,776.17
2017-09-26T00:51:18.360Z,776.14
2017-09-26T00:51:22.461Z,776.19
2017-09-26T00:51:26.434Z,776.17
2017-09-26T00:51:30.659Z,776.19
2017-09-26T00:51:35.131Z,776.18
2017-09-26T00:51:39.360Z,776.22
2017-09-26T00:51:43.458Z,776.22
2017-09-26T00:51:47.682Z,776.19
2017-09-26T00:51:52.277Z,776.18
2017-09-26T00:51:56.752Z,776.17
2017-09-26T00:52:01.104Z,776.22
2017-09-26T00:52:05.557Z,776.17
2017-09-26T00:52:10.030Z,776.18
2017-09-26T00:52:14.261Z,776.18
2017-09-26T00:52:18.490Z,776.2
2017-09-26T00:52:22.465Z,776.18
2017-09-26T00:52:26.440Z,776.18
2017-09-26T00:52:30.664Z,776.16
2017-09-26T00:52:34.886Z,776.2
2017-09-26T00:52:39.235Z,776.17
2017-09-26T00:52:43.838Z,776.18
2017-09-26T00:52:48.190Z,776.17
2017-09-26T00:52:52.165Z,776.18
2017-09-26T00:52:56.265Z,776.19
2017-09-26T00:53:00.367Z,776.19
2017-09-26T00:53:04.619Z,776.2
2017-09-26T00:53:09.098Z,776.15
2017-09-26T00:53:13.200Z,776.14
2017-09-26T00:53:17.301Z,776.13
2017-09-26T00:53:21.786Z,776.19
2017-09-26T00:53:25.886Z,776.19
2017-09-26T00:53:30.354Z,776.18
2017-09-26T00:53:34.452Z,776.17
2017-09-26T00:53:39.184Z,776.16
2017-09-26T00:53:43.286Z,776.2
2017-09-26T00:53:47.261Z,776.18
2017-09-26T00:53:51.859Z,776.14
2017-09-26T00:53:55.959Z,776.13
2017-09-26T00:54:00.434Z,776.2
2017-09-26T00:54:04.918Z,776.16
2017-09-26T00:54:09.021Z,776.16